sensor_id;sensor_type;location;lat;lon;timestamp;temperature;humidity
42135;DHT22;28312;43.460;11.810;2022-10-16T00:01:23;14.00;65.90
42135;DHT22;28312;43.460;11.810;2022-10-16T00:05:30;14.10;65.90
42135;DHT22;28312;43.460;11.810;2022-10-16T00:09:33;14.20;65.90
42135;DHT22;28312;43.460;11.810;2022-10-16T00:13:40;14.20;65.90
42135;DHT22;28312;43.460;11.810;2022-10-16T00:17:44;14.20;66.00
42135;DHT22;28312;43.460;11.810;2022-10-16T00:21:47;14.30;66.00
42135;DHT22;28312;43.460;11.810;2022-10-16T00:26:12;14.40;66.00
42135;DHT22;28312;43.460;11.810;2022-10-16T00:30:18;14.40;65.90
42135;DHT22;28312;43.460;11.810;2022-10-16T00:34:22;14.40;65.90
42135;DHT22;28312;43.460;11.810;2022-10-16T00:38:26;14.50;65.80
42135;DHT22;28312;43.460;11.810;2022-10-16T00:42:29;14.40;65.70
42135;DHT22;28312;43.460;11.810;2022-10-16T00:46:39;14.30;65.60
42135;DHT22;28312;43.460;11.810;2022-10-16T00:50:43;14.30;65.70
42135;DHT22;28312;43.460;11.810;2022-10-16T00:54:49;14.10;65.90
42135;DHT22;28312;43.460;11.810;2022-10-16T00:58:54;14.00;66.00
42135;DHT22;28312;43.460;11.810;2022-10-16T01:03:00;13.90;65.80
42135;DHT22;28312;43.460;11.810;2022-10-16T01:07:16;13.70;66.10
42135;DHT22;28312;43.460;11.810;2022-10-16T01:20:29;13.30;66.30
42135;DHT22;28312;43.460;11.810;2022-10-16T01:24:40;13.20;66.30
42135;DHT22;28312;43.460;11.810;2022-10-16T01:28:51;13.10;66.50
42135;DHT22;28312;43.460;11.810;2022-10-16T01:33:01;12.90;66.50
42135;DHT22;28312;43.460;11.810;2022-10-16T01:37:09;12.90;66.60
42135;DHT22;28312;43.460;11.810;2022-10-16T01:41:19;12.80;66.50
42135;DHT22;28312;43.460;11.810;2022-10-16T01:45:24;12.80;66.50
42135;DHT22;28312;43.460;11.810;2022-10-16T01:49:32;12.70;66.40
42135;DHT22;28312;43.460;11.810;2022-10-16T01:53:36;12.70;66.40
42135;DHT22;28312;43.460;11.810;2022-10-16T01:57:45;12.70;66.30
42135;DHT22;28312;43.460;11.810;2022-10-16T02:01:54;12.60;66.40
42135;DHT22;28312;43.460;11.810;2022-10-16T02:06:00;12.50;66.40
42135;DHT22;28312;43.460;11.810;2022-10-16T02:10:04;12.50;66.30
42135;DHT22;28312;43.460;11.810;2022-10-16T02:14:08;12.40;66.40
42135;DHT22;28312;43.460;11.810;2022-10-16T02:18:12;12.30;66.40
42135;DHT22;28312;43.460;11.810;2022-10-16T02:22:30;12.20;66.50
42135;DHT22;28312;43.460;11.810;2022-10-16T02:31:01;11.90;66.90
42135;DHT22;28312;43.460;11.810;2022-10-16T02:35:07;11.90;67.10
42135;DHT22;28312;43.460;11.810;2022-10-16T02:39:11;11.80;66.90
42135;DHT22;28312;43.460;11.810;2022-10-16T02:43:16;11.70;67.00
42135;DHT22;28312;43.460;11.810;2022-10-16T02:47:20;11.70;67.10
42135;DHT22;28312;43.460;11.810;2022-10-16T02:51:23;11.70;67.00
42135;DHT22;28312;43.460;11.810;2022-10-16T02:55:27;11.70;66.90
42135;DHT22;28312;43.460;11.810;2022-10-16T02:59:31;11.60;66.90
42135;DHT22;28312;43.460;11.810;2022-10-16T03:03:35;11.60;67.00
42135;DHT22;28312;43.460;11.810;2022-10-16T03:07:40;11.60;66.90
42135;DHT22;28312;43.460;11.810;2022-10-16T03:11:44;11.50;67.00
42135;DHT22;28312;43.460;11.810;2022-10-16T03:15:47;11.40;67.10
42135;DHT22;28312;43.460;11.810;2022-10-16T03:19:51;11.40;67.20
42135;DHT22;28312;43.460;11.810;2022-10-16T03:23:55;11.20;67.40
42135;DHT22;28312;43.460;11.810;2022-10-16T03:27:58;11.20;67.50
42135;DHT22;28312;43.460;11.810;2022-10-16T03:32:02;11.20;67.60
42135;DHT22;28312;43.460;11.810;2022-10-16T03:36:06;11.20;67.60
42135;DHT22;28312;43.460;11.810;2022-10-16T03:40:10;11.20;67.40
42135;DHT22;28312;43.460;11.810;2022-10-16T03:44:14;11.20;67.40
42135;DHT22;28312;43.460;11.810;2022-10-16T03:48:21;11.20;67.40
42135;DHT22;28312;43.460;11.810;2022-10-16T03:52:25;11.20;67.40
42135;DHT22;28312;43.460;11.810;2022-10-16T03:56:29;11.10;67.50
42135;DHT22;28312;43.460;11.810;2022-10-16T04:00:32;11.10;67.50
42135;DHT22;28312;43.460;11.810;2022-10-16T04:04:36;11.10;67.40
42135;DHT22;28312;43.460;11.810;2022-10-16T04:08:43;11.20;67.40
42135;DHT22;28312;43.460;11.810;2022-10-16T04:12:46;11.10;67.50
42135;DHT22;28312;43.460;11.810;2022-10-16T04:16:52;11.00;67.50
42135;DHT22;28312;43.460;11.810;2022-10-16T04:20:56;11.00;67.60
42135;DHT22;28312;43.460;11.810;2022-10-16T04:25:00;10.90;67.60
42135;DHT22;28312;43.460;11.810;2022-10-16T04:29:04;10.80;67.70
42135;DHT22;28312;43.460;11.810;2022-10-16T04:33:09;10.80;67.70
42135;DHT22;28312;43.460;11.810;2022-10-16T04:37:13;10.80;67.90
42135;DHT22;28312;43.460;11.810;2022-10-16T04:41:18;10.80;67.90
42135;DHT22;28312;43.460;11.810;2022-10-16T04:45:21;10.80;67.90
42135;DHT22;28312;43.460;11.810;2022-10-16T04:49:25;10.80;67.90
42135;DHT22;28312;43.460;11.810;2022-10-16T04:53:29;10.70;67.90
42135;DHT22;28312;43.460;11.810;2022-10-16T04:57:33;10.80;67.90
42135;DHT22;28312;43.460;11.810;2022-10-16T05:01:37;10.80;67.80
42135;DHT22;28312;43.460;11.810;2022-10-16T05:05:44;10.70;67.80
42135;DHT22;28312;43.460;11.810;2022-10-16T05:09:48;10.70;67.90
42135;DHT22;28312;43.460;11.810;2022-10-16T05:13:52;10.70;67.80
42135;DHT22;28312;43.460;11.810;2022-10-16T05:17:57;10.60;68.00
42135;DHT22;28312;43.460;11.810;2022-10-16T05:22:01;10.60;67.90
42135;DHT22;28312;43.460;11.810;2022-10-16T05:26:05;10.60;67.90
42135;DHT22;28312;43.460;11.810;2022-10-16T05:30:09;10.70;68.10
42135;DHT22;28312;43.460;11.810;2022-10-16T05:34:14;10.70;68.20
42135;DHT22;28312;43.460;11.810;2022-10-16T05:38:18;10.60;68.10
42135;DHT22;28312;43.460;11.810;2022-10-16T05:42:23;10.50;68.30
42135;DHT22;28312;43.460;11.810;2022-10-16T05:46:26;10.50;68.30
42135;DHT22;28312;43.460;11.810;2022-10-16T05:50:30;10.40;68.20
42135;DHT22;28312;43.460;11.810;2022-10-16T05:54:34;10.40;68.30
42135;DHT22;28312;43.460;11.810;2022-10-16T05:58:39;10.40;68.60
42135;DHT22;28312;43.460;11.810;2022-10-16T06:02:47;10.50;68.70
42135;DHT22;28312;43.460;11.810;2022-10-16T06:06:50;10.50;68.80
42135;DHT22;28312;43.460;11.810;2022-10-16T06:11:02;10.60;68.80
42135;DHT22;28312;43.460;11.810;2022-10-16T06:15:08;10.70;69.00
42135;DHT22;28312;43.460;11.810;2022-10-16T06:19:12;10.80;68.90
42135;DHT22;28312;43.460;11.810;2022-10-16T06:23:16;10.90;69.00
42135;DHT22;28312;43.460;11.810;2022-10-16T06:27:19;11.10;69.00
42135;DHT22;28312;43.460;11.810;2022-10-16T06:31:24;11.20;69.10
42135;DHT22;28312;43.460;11.810;2022-10-16T06:35:30;11.30;69.20
42135;DHT22;28312;43.460;11.810;2022-10-16T06:39:35;11.50;69.30
42135;DHT22;28312;43.460;11.810;2022-10-16T06:43:39;11.70;69.40
42135;DHT22;28312;43.460;11.810;2022-10-16T06:47:42;12.00;69.50
42135;DHT22;28312;43.460;11.810;2022-10-16T06:51:46;12.20;69.50
42135;DHT22;28312;43.460;11.810;2022-10-16T06:55:52;12.50;69.50
42135;DHT22;28312;43.460;11.810;2022-10-16T06:59:57;12.70;69.50
42135;DHT22;28312;43.460;11.810;2022-10-16T07:04:01;12.90;69.40
42135;DHT22;28312;43.460;11.810;2022-10-16T07:08:05;13.20;69.40
42135;DHT22;28312;43.460;11.810;2022-10-16T07:12:09;13.50;69.30
42135;DHT22;28312;43.460;11.810;2022-10-16T07:16:21;13.70;69.40
42135;DHT22;28312;43.460;11.810;2022-10-16T07:20:25;14.10;69.50
42135;DHT22;28312;43.460;11.810;2022-10-16T07:24:29;14.40;69.50
42135;DHT22;28312;43.460;11.810;2022-10-16T07:28:33;14.80;69.80
42135;DHT22;28312;43.460;11.810;2022-10-16T07:32:37;15.30;69.80
42135;DHT22;28312;43.460;11.810;2022-10-16T07:36:41;15.70;69.80
42135;DHT22;28312;43.460;11.810;2022-10-16T07:40:56;16.30;69.80
42135;DHT22;28312;43.460;11.810;2022-10-16T07:45:03;16.90;69.60
42135;DHT22;28312;43.460;11.810;2022-10-16T07:49:08;17.70;69.60
42135;DHT22;28312;43.460;11.810;2022-10-16T07:53:13;18.70;69.10
42135;DHT22;28312;43.460;11.810;2022-10-16T07:57:16;19.60;68.60
42135;DHT22;28312;43.460;11.810;2022-10-16T08:01:22;20.70;67.80
42135;DHT22;28312;43.460;11.810;2022-10-16T08:05:30;21.70;67.00
42135;DHT22;28312;43.460;11.810;2022-10-16T08:09:35;22.90;65.90
42135;DHT22;28312;43.460;11.810;2022-10-16T08:13:38;23.90;64.70
42135;DHT22;28312;43.460;11.810;2022-10-16T08:17:42;24.90;63.50
42135;DHT22;28312;43.460;11.810;2022-10-16T08:21:49;25.80;62.20
42135;DHT22;28312;43.460;11.810;2022-10-16T08:25:53;26.70;61.20
42135;DHT22;28312;43.460;11.810;2022-10-16T08:29:57;27.60;60.30
42135;DHT22;28312;43.460;11.810;2022-10-16T08:34:01;28.20;59.40
42135;DHT22;28312;43.460;11.810;2022-10-16T08:38:05;28.80;58.80
42135;DHT22;28312;43.460;11.810;2022-10-16T08:46:46;29.70;57.60
42135;DHT22;28312;43.460;11.810;2022-10-16T08:50:52;30.10;57.20
42135;DHT22;28312;43.460;11.810;2022-10-16T08:54:57;30.20;56.60
42135;DHT22;28312;43.460;11.810;2022-10-16T08:59:01;30.10;56.40
42135;DHT22;28312;43.460;11.810;2022-10-16T09:16:46;30.50;55.20
42135;DHT22;28312;43.460;11.810;2022-10-16T09:21:07;30.80;55.30
42135;DHT22;28312;43.460;11.810;2022-10-16T09:25:16;31.10;54.90
42135;DHT22;28312;43.460;11.810;2022-10-16T09:29:21;31.30;54.40
42135;DHT22;28312;43.460;11.810;2022-10-16T09:33:32;31.50;54.10
42135;DHT22;28312;43.460;11.810;2022-10-16T09:37:36;31.60;53.90
42135;DHT22;28312;43.460;11.810;2022-10-16T09:41:45;31.60;53.90
42135;DHT22;28312;43.460;11.810;2022-10-16T09:45:59;31.50;53.50
42135;DHT22;28312;43.460;11.810;2022-10-16T09:50:23;31.30;53.90
42135;DHT22;28312;43.460;11.810;2022-10-16T09:54:28;31.40;53.70
42135;DHT22;28312;43.460;11.810;2022-10-16T09:58:32;31.60;53.90
42135;DHT22;28312;43.460;11.810;2022-10-16T10:02:37;31.60;53.90
42135;DHT22;28312;43.460;11.810;2022-10-16T10:06:45;32.00;53.20
42135;DHT22;28312;43.460;11.810;2022-10-16T10:10:50;31.80;53.10
42135;DHT22;28312;43.460;11.810;2022-10-16T10:14:56;31.80;53.20
42135;DHT22;28312;43.460;11.810;2022-10-16T10:19:01;31.90;52.70
42135;DHT22;28312;43.460;11.810;2022-10-16T10:23:25;32.00;52.60
42135;DHT22;28312;43.460;11.810;2022-10-16T10:40:43;32.30;52.40
42135;DHT22;28312;43.460;11.810;2022-10-16T10:45:14;32.50;52.10
42135;DHT22;28312;43.460;11.810;2022-10-16T10:49:38;32.80;52.00
42135;DHT22;28312;43.460;11.810;2022-10-16T11:03:27;33.00;51.60
42135;DHT22;28312;43.460;11.810;2022-10-16T11:07:31;33.30;50.80
42135;DHT22;28312;43.460;11.810;2022-10-16T11:11:40;33.30;50.70
42135;DHT22;28312;43.460;11.810;2022-10-16T11:15:47;33.20;50.30
42135;DHT22;28312;43.460;11.810;2022-10-16T11:19:58;33.10;50.60
42135;DHT22;28312;43.460;11.810;2022-10-16T11:28:49;32.90;49.90
42135;DHT22;28312;43.460;11.810;2022-10-16T11:37:27;32.60;50.20
42135;DHT22;28312;43.460;11.810;2022-10-16T11:41:35;32.60;50.10
42135;DHT22;28312;43.460;11.810;2022-10-16T11:45:44;32.20;50.30
42135;DHT22;28312;43.460;11.810;2022-10-16T11:49:53;32.40;50.50
42135;DHT22;28312;43.460;11.810;2022-10-16T11:54:49;32.80;50.00
42135;DHT22;28312;43.460;11.810;2022-10-16T11:58:52;32.90;49.40
42135;DHT22;28312;43.460;11.810;2022-10-16T12:07:32;32.40;50.00
42135;DHT22;28312;43.460;11.810;2022-10-16T12:11:38;32.40;48.60
42135;DHT22;28312;43.460;11.810;2022-10-16T12:15:42;32.10;49.10
42135;DHT22;28312;43.460;11.810;2022-10-16T12:20:23;31.80;49.30
42135;DHT22;28312;43.460;11.810;2022-10-16T12:24:35;31.40;49.70
42135;DHT22;28312;43.460;11.810;2022-10-16T12:28:40;31.10;49.70
42135;DHT22;28312;43.460;11.810;2022-10-16T12:32:54;31.10;49.90
42135;DHT22;28312;43.460;11.810;2022-10-16T12:37:12;31.10;50.00
42135;DHT22;28312;43.460;11.810;2022-10-16T12:41:29;31.20;50.00
42135;DHT22;28312;43.460;11.810;2022-10-16T12:45:34;31.40;50.30
42135;DHT22;28312;43.460;11.810;2022-10-16T12:49:52;31.40;49.50
42135;DHT22;28312;43.460;11.810;2022-10-16T12:58:22;31.30;50.00
42135;DHT22;28312;43.460;11.810;2022-10-16T13:03:12;31.50;49.70
42135;DHT22;28312;43.460;11.810;2022-10-16T13:07:44;31.60;49.50
42135;DHT22;28312;43.460;11.810;2022-10-16T13:16:08;31.30;49.70
42135;DHT22;28312;43.460;11.810;2022-10-16T13:25:22;31.30;49.20
42135;DHT22;28312;43.460;11.810;2022-10-16T13:29:32;31.20;48.70
42135;DHT22;28312;43.460;11.810;2022-10-16T13:33:40;31.30;48.50
42135;DHT22;28312;43.460;11.810;2022-10-16T13:37:45;31.40;48.20
42135;DHT22;28312;43.460;11.810;2022-10-16T13:42:06;31.30;47.90
42135;DHT22;28312;43.460;11.810;2022-10-16T13:46:18;31.00;48.10
42135;DHT22;28312;43.460;11.810;2022-10-16T13:50:22;30.70;48.00
42135;DHT22;28312;43.460;11.810;2022-10-16T13:54:27;30.40;48.50
42135;DHT22;28312;43.460;11.810;2022-10-16T13:58:35;30.40;48.50
42135;DHT22;28312;43.460;11.810;2022-10-16T14:02:40;30.20;48.10
42135;DHT22;28312;43.460;11.810;2022-10-16T14:06:46;29.70;48.00
42135;DHT22;28312;43.460;11.810;2022-10-16T14:10:55;29.00;48.30
42135;DHT22;28312;43.460;11.810;2022-10-16T14:15:00;28.50;48.50
42135;DHT22;28312;43.460;11.810;2022-10-16T14:19:05;27.90;48.70
42135;DHT22;28312;43.460;11.810;2022-10-16T14:23:23;27.50;49.00
42135;DHT22;28312;43.460;11.810;2022-10-16T14:27:37;27.10;49.30
42135;DHT22;28312;43.460;11.810;2022-10-16T14:31:41;26.80;49.50
42135;DHT22;28312;43.460;11.810;2022-10-16T14:35:45;26.60;49.50
42135;DHT22;28312;43.460;11.810;2022-10-16T14:39:52;26.40;49.70
42135;DHT22;28312;43.460;11.810;2022-10-16T14:44:00;26.20;49.80
42135;DHT22;28312;43.460;11.810;2022-10-16T14:48:15;26.10;49.90
42135;DHT22;28312;43.460;11.810;2022-10-16T14:52:22;26.00;50.00
42135;DHT22;28312;43.460;11.810;2022-10-16T14:56:29;25.80;50.10
42135;DHT22;28312;43.460;11.810;2022-10-16T15:00:35;25.70;50.10
42135;DHT22;28312;43.460;11.810;2022-10-16T15:04:41;25.70;50.30
42135;DHT22;28312;43.460;11.810;2022-10-16T15:08:45;25.60;50.40
42135;DHT22;28312;43.460;11.810;2022-10-16T15:12:49;25.50;50.40
42135;DHT22;28312;43.460;11.810;2022-10-16T15:16:53;25.40;50.50
42135;DHT22;28312;43.460;11.810;2022-10-16T15:20:56;25.40;50.60
42135;DHT22;28312;43.460;11.810;2022-10-16T15:25:00;25.30;50.70
42135;DHT22;28312;43.460;11.810;2022-10-16T15:29:04;25.10;50.80
42135;DHT22;28312;43.460;11.810;2022-10-16T15:33:13;25.10;50.90
42135;DHT22;28312;43.460;11.810;2022-10-16T15:37:17;24.90;51.10
42135;DHT22;28312;43.460;11.810;2022-10-16T15:41:22;24.80;51.20
42135;DHT22;28312;43.460;11.810;2022-10-16T15:45:26;24.60;51.40
42135;DHT22;28312;43.460;11.810;2022-10-16T15:49:30;24.40;51.70
42135;DHT22;28312;43.460;11.810;2022-10-16T15:53:34;24.30;51.80
42135;DHT22;28312;43.460;11.810;2022-10-16T15:57:38;24.10;51.90
42135;DHT22;28312;43.460;11.810;2022-10-16T16:01:44;24.00;52.00
42135;DHT22;28312;43.460;11.810;2022-10-16T16:05:48;23.80;52.10
42135;DHT22;28312;43.460;11.810;2022-10-16T16:09:52;23.60;52.30
42135;DHT22;28312;43.460;11.810;2022-10-16T16:13:56;23.40;52.40
42135;DHT22;28312;43.460;11.810;2022-10-16T16:18:00;23.20;52.60
42135;DHT22;28312;43.460;11.810;2022-10-16T16:22:05;23.00;52.60
42135;DHT22;28312;43.460;11.810;2022-10-16T16:26:22;22.70;52.90
42135;DHT22;28312;43.460;11.810;2022-10-16T16:30:29;22.50;53.10
42135;DHT22;28312;43.460;11.810;2022-10-16T16:34:33;22.20;53.20
42135;DHT22;28312;43.460;11.810;2022-10-16T16:38:37;21.90;53.50
42135;DHT22;28312;43.460;11.810;2022-10-16T16:42:41;21.70;53.80
42135;DHT22;28312;43.460;11.810;2022-10-16T16:46:45;21.40;54.00
42135;DHT22;28312;43.460;11.810;2022-10-16T16:50:48;21.00;54.30
42135;DHT22;28312;43.460;11.810;2022-10-16T16:54:52;20.70;54.70
42135;DHT22;28312;43.460;11.810;2022-10-16T16:58:57;20.40;54.80
42135;DHT22;28312;43.460;11.810;2022-10-16T17:03:01;20.30;54.80
42135;DHT22;28312;43.460;11.810;2022-10-16T17:07:05;19.90;55.10
42135;DHT22;28312;43.460;11.810;2022-10-16T17:11:14;19.60;55.50
42135;DHT22;28312;43.460;11.810;2022-10-16T17:15:18;19.40;55.70
42135;DHT22;28312;43.460;11.810;2022-10-16T17:19:21;19.30;55.60
42135;DHT22;28312;43.460;11.810;2022-10-16T17:23:26;19.10;55.90
42135;DHT22;28312;43.460;11.810;2022-10-16T17:27:30;19.00;56.10
42135;DHT22;28312;43.460;11.810;2022-10-16T17:31:35;18.90;56.10
42135;DHT22;28312;43.460;11.810;2022-10-16T17:35:42;18.80;56.30
42135;DHT22;28312;43.460;11.810;2022-10-16T17:39:49;18.70;56.50
42135;DHT22;28312;43.460;11.810;2022-10-16T17:43:54;18.40;56.80
42135;DHT22;28312;43.460;11.810;2022-10-16T17:47:58;18.20;57.00
42135;DHT22;28312;43.460;11.810;2022-10-16T17:52:02;18.10;57.40
42135;DHT22;28312;43.460;11.810;2022-10-16T17:56:10;18.00;57.40
42135;DHT22;28312;43.460;11.810;2022-10-16T18:00:16;17.90;57.60
42135;DHT22;28312;43.460;11.810;2022-10-16T18:04:29;17.70;57.70
42135;DHT22;28312;43.460;11.810;2022-10-16T18:08:33;17.60;57.90
42135;DHT22;28312;43.460;11.810;2022-10-16T18:12:39;17.50;57.90
42135;DHT22;28312;43.460;11.810;2022-10-16T18:16:43;17.40;57.70
42135;DHT22;28312;43.460;11.810;2022-10-16T18:20:56;17.30;57.90
42135;DHT22;28312;43.460;11.810;2022-10-16T18:25:00;17.20;58.10
42135;DHT22;28312;43.460;11.810;2022-10-16T18:29:06;17.10;58.10
42135;DHT22;28312;43.460;11.810;2022-10-16T18:33:10;17.00;58.40
42135;DHT22;28312;43.460;11.810;2022-10-16T18:37:14;16.80;58.70
42135;DHT22;28312;43.460;11.810;2022-10-16T18:41:18;16.80;58.80
42135;DHT22;28312;43.460;11.810;2022-10-16T18:45:22;16.60;58.90
42135;DHT22;28312;43.460;11.810;2022-10-16T18:49:26;16.50;59.20
42135;DHT22;28312;43.460;11.810;2022-10-16T18:53:31;16.40;59.40
42135;DHT22;28312;43.460;11.810;2022-10-16T18:57:36;16.50;59.40
42135;DHT22;28312;43.460;11.810;2022-10-16T19:01:39;16.40;59.40
42135;DHT22;28312;43.460;11.810;2022-10-16T19:05:44;16.30;59.50
42135;DHT22;28312;43.460;11.810;2022-10-16T19:09:51;16.30;59.50
42135;DHT22;28312;43.460;11.810;2022-10-16T19:13:56;16.20;59.50
42135;DHT22;28312;43.460;11.810;2022-10-16T19:17:59;16.20;59.70
42135;DHT22;28312;43.460;11.810;2022-10-16T19:22:03;16.20;59.60
42135;DHT22;28312;43.460;11.810;2022-10-16T19:26:39;16.20;59.60
42135;DHT22;28312;43.460;11.810;2022-10-16T19:30:45;16.10;59.50
42135;DHT22;28312;43.460;11.810;2022-10-16T19:34:50;16.10;59.60
42135;DHT22;28312;43.460;11.810;2022-10-16T19:39:09;15.90;59.80
42135;DHT22;28312;43.460;11.810;2022-10-16T19:43:15;15.80;60.10
42135;DHT22;28312;43.460;11.810;2022-10-16T19:47:21;15.60;60.50
42135;DHT22;28312;43.460;11.810;2022-10-16T19:51:28;15.60;60.10
42135;DHT22;28312;43.460;11.810;2022-10-16T19:55:32;15.60;60.20
42135;DHT22;28312;43.460;11.810;2022-10-16T19:59:36;15.60;60.30
42135;DHT22;28312;43.460;11.810;2022-10-16T20:03:47;15.60;60.30
42135;DHT22;28312;43.460;11.810;2022-10-16T20:07:56;15.40;60.60
42135;DHT22;28312;43.460;11.810;2022-10-16T20:12:00;15.30;60.70
42135;DHT22;28312;43.460;11.810;2022-10-16T20:16:05;15.20;60.90
42135;DHT22;28312;43.460;11.810;2022-10-16T20:20:10;15.20;61.00
42135;DHT22;28312;43.460;11.810;2022-10-16T20:24:13;15.10;61.20
42135;DHT22;28312;43.460;11.810;2022-10-16T20:28:21;15.10;61.10
42135;DHT22;28312;43.460;11.810;2022-10-16T20:32:24;15.10;61.20
42135;DHT22;28312;43.460;11.810;2022-10-16T20:36:29;15.00;61.30
42135;DHT22;28312;43.460;11.810;2022-10-16T20:40:35;14.90;61.50
42135;DHT22;28312;43.460;11.810;2022-10-16T20:44:39;14.80;61.60
42135;DHT22;28312;43.460;11.810;2022-10-16T20:48:50;14.80;61.70
42135;DHT22;28312;43.460;11.810;2022-10-16T20:52:55;14.80;61.70
42135;DHT22;28312;43.460;11.810;2022-10-16T20:56:59;14.80;61.60
42135;DHT22;28312;43.460;11.810;2022-10-16T21:01:08;14.70;61.60
42135;DHT22;28312;43.460;11.810;2022-10-16T21:05:13;14.70;61.80
42135;DHT22;28312;43.460;11.810;2022-10-16T21:09:17;14.70;61.80
42135;DHT22;28312;43.460;11.810;2022-10-16T21:13:21;14.60;62.00
42135;DHT22;28312;43.460;11.810;2022-10-16T21:17:30;14.50;62.10
42135;DHT22;28312;43.460;11.810;2022-10-16T21:21:36;14.50;62.10
42135;DHT22;28312;43.460;11.810;2022-10-16T21:25:49;14.50;62.00
42135;DHT22;28312;43.460;11.810;2022-10-16T21:29:53;14.40;62.10
42135;DHT22;28312;43.460;11.810;2022-10-16T21:33:57;14.40;62.10
42135;DHT22;28312;43.460;11.810;2022-10-16T21:38:00;14.40;62.20
42135;DHT22;28312;43.460;11.810;2022-10-16T21:42:05;14.30;62.20
42135;DHT22;28312;43.460;11.810;2022-10-16T21:46:10;14.20;62.30
42135;DHT22;28312;43.460;11.810;2022-10-16T21:50:14;14.20;62.40
42135;DHT22;28312;43.460;11.810;2022-10-16T21:54:21;14.10;62.50
42135;DHT22;28312;43.460;11.810;2022-10-16T21:58:25;14.20;62.50
42135;DHT22;28312;43.460;11.810;2022-10-16T22:02:28;14.20;62.40
42135;DHT22;28312;43.460;11.810;2022-10-16T22:06:32;14.20;62.30
42135;DHT22;28312;43.460;11.810;2022-10-16T22:10:36;14.10;62.40
42135;DHT22;28312;43.460;11.810;2022-10-16T22:14:40;14.10;62.60
42135;DHT22;28312;43.460;11.810;2022-10-16T22:18:43;14.00;62.70
42135;DHT22;28312;43.460;11.810;2022-10-16T22:22:47;14.00;62.80
42135;DHT22;28312;43.460;11.810;2022-10-16T22:26:52;13.90;63.00
42135;DHT22;28312;43.460;11.810;2022-10-16T22:30:59;13.90;63.10
42135;DHT22;28312;43.460;11.810;2022-10-16T22:35:03;13.80;63.20
42135;DHT22;28312;43.460;11.810;2022-10-16T22:39:07;13.80;63.30
42135;DHT22;28312;43.460;11.810;2022-10-16T22:43:11;13.80;63.30
42135;DHT22;28312;43.460;11.810;2022-10-16T22:47:15;13.80;63.30
42135;DHT22;28312;43.460;11.810;2022-10-16T22:51:19;13.70;63.40
42135;DHT22;28312;43.460;11.810;2022-10-16T22:55:23;13.70;63.50
42135;DHT22;28312;43.460;11.810;2022-10-16T22:59:28;13.70;63.60
42135;DHT22;28312;43.460;11.810;2022-10-16T23:03:31;13.70;63.60
42135;DHT22;28312;43.460;11.810;2022-10-16T23:07:35;13.70;63.60
42135;DHT22;28312;43.460;11.810;2022-10-16T23:11:39;13.60;63.60
42135;DHT22;28312;43.460;11.810;2022-10-16T23:15:44;13.50;63.80
42135;DHT22;28312;43.460;11.810;2022-10-16T23:19:47;13.40;63.90
42135;DHT22;28312;43.460;11.810;2022-10-16T23:23:52;13.40;64.00
42135;DHT22;28312;43.460;11.810;2022-10-16T23:27:56;13.40;64.00
42135;DHT22;28312;43.460;11.810;2022-10-16T23:31:59;13.30;64.20
42135;DHT22;28312;43.460;11.810;2022-10-16T23:36:09;13.40;64.10
42135;DHT22;28312;43.460;11.810;2022-10-16T23:40:13;13.30;64.20
42135;DHT22;28312;43.460;11.810;2022-10-16T23:44:17;13.30;64.10
42135;DHT22;28312;43.460;11.810;2022-10-16T23:48:20;13.20;64.00
42135;DHT22;28312;43.460;11.810;2022-10-16T23:52:24;13.20;64.10
42135;DHT22;28312;43.460;11.810;2022-10-16T23:56:30;13.20;64.20
